Remember When — ZCXN6 — position and weather

sailwx.info

Track history (hours):
 
Tides and Currents Weather Stations Pressure Air Temp Water Temp Dewpoint Dewpoint Depression Visibility Wind Speed Wind Dir Waves Ship Positions

Remember When

Last reported at 2016-Jan-17 08:29 UTC. Time now 2016-Feb-11 15:06 UTC.
Position N 26°34' W 079°44'.
Warning: this ship's position is 25 days out of date.

Length 50 m; draft 2.6 m.

Type: Pleasure craft. MMSI: 319582000.

Date/timePositionNaut miles runAvg speedWind from/ knotsBaromVisibWave heightAir tempDewpointWater temp
2016-Jan-17 08:29N 26°34' W 079°44'1110.5
2016-Jan-17 07:27N 26°28' W 079°34'147 7.0
2016-Jan-16 10:28N 25°05' W 077°19'0 0.0
2016-Jan-16 06:28N 25°05' W 077°19'32 0.8
2016-Jan-14 13:26N 24°43' W 076°54'  
2016-Jan-09 08:27N 24°58' W 077°31'3 2.8
2016-Jan-09 07:32N 25°00' W 077°30'0 0.0
2016-Jan-09 06:32N 25°00' W 077°30'0 0.0
2016-Jan-09 05:32N 25°00' W 077°30'0 0.0
2016-Jan-09 04:32N 25°00' W 077°30'0 0.0
2016-Jan-09 03:32N 25°00' W 077°30'0 0.0
2016-Jan-09 02:32N 25°00' W 077°30'0 0.0
2016-Jan-09 01:32N 25°00' W 077°30'0 0.0
2016-Jan-09 00:32N 25°00' W 077°30'0 0.0
2016-Jan-08 23:32N 25°00' W 077°30'0 0.0
2016-Jan-08 22:32N 25°00' W 077°30'0 0.0
2016-Jan-08 21:32N 25°00' W 077°30'0 0.0
2016-Jan-08 20:32N 25°00' W 077°30'0 0.0
2016-Jan-08 19:32N 25°00' W 077°30'0 0.0
2016-Jan-08 18:29N 25°00' W 077°30'  
Track history (hours):
 
Tides and Currents Weather Stations Pressure Air Temp Water Temp Dewpoint Dewpoint Depression Visibility Wind Speed Wind Dir Waves Ship Positions

Remember When

Last reported at 2016-Jan-17 08:29 UTC. Time now 2016-Feb-11 15:06 UTC.
Position N 26°34' W 079°44'.
Warning: this ship's position is 25 days out of date.

Length 50 m; draft 2.6 m.

Type: Pleasure craft. MMSI: 319582000.

Date/timePositionNaut miles runAvg speedWind from/ knotsBaromVisibWave heightAir tempDewpointWater temp
2016-Jan-17 08:29N 26°34' W 079°44'1110.5
2016-Jan-17 07:27N 26°28' W 079°34'147 7.0
2016-Jan-16 10:28N 25°05' W 077°19'0 0.0
2016-Jan-16 06:28N 25°05' W 077°19'32 0.8
2016-Jan-14 13:26N 24°43' W 076°54'  
2016-Jan-09 08:27N 24°58' W 077°31'3 2.8
2016-Jan-09 07:32N 25°00' W 077°30'0 0.0
2016-Jan-09 06:32N 25°00' W 077°30'0 0.0
2016-Jan-09 05:32N 25°00' W 077°30'0 0.0
2016-Jan-09 04:32N 25°00' W 077°30'0 0.0
2016-Jan-09 03:32N 25°00' W 077°30'0 0.0
2016-Jan-09 02:32N 25°00' W 077°30'0 0.0
2016-Jan-09 01:32N 25°00' W 077°30'0 0.0
2016-Jan-09 00:32N 25°00' W 077°30'0 0.0
2016-Jan-08 23:32N 25°00' W 077°30'0 0.0
2016-Jan-08 22:32N 25°00' W 077°30'0 0.0
2016-Jan-08 21:32N 25°00' W 077°30'0 0.0
2016-Jan-08 20:32N 25°00' W 077°30'0 0.0
2016-Jan-08 19:32N 25°00' W 077°30'0 0.0
2016-Jan-08 18:29N 25°00' W 077°30'  

Dump ship's entire track history